Time;durP1;ratioP1;P1;durP2;ratioP2;P2;SDS_P1;SDS_P2;PMS_P1;PMS_P2;Temp;Humidity;BMP_temperature;BMP_pressure;BME280_temperature;BME280_humidity;BME280_pressure;Samples;Min_cycle;Max_cycle;Signal;HPM_P1;HPM_P2
2023/03/19 00:00:13;;;;;;;3.60;2.70;;;;;;;;;;4992450;28;20460;-68
2023/03/19 00:02:41;;;;;;;5.30;2.33;;;;;;;;;;4992685;28;20576;-69
2023/03/19 00:05:08;;;;;;;2.33;1.73;;;;;;;;;;4992393;28;20457;-67
2023/03/19 00:07:36;;;;;;;2.87;2.60;;;;;;;;;;4992606;28;20449;-68
2023/03/19 00:10:04;;;;;;;5.13;2.60;;;;;;;;;;4990232;28;20472;-69
2023/03/19 00:12:31;;;;;;;2.83;2.27;;;;;;;;;;4992414;28;20499;-68
2023/03/19 00:14:58;;;;;;;6.97;2.67;;;;;;;;;;4991384;28;20966;-69
2023/03/19 00:17:25;;;;;;;3.23;2.47;;;;;;;;;;4992407;28;20489;-68
2023/03/19 00:19:52;;;;;;;3.03;2.20;;;;;;;;;;4991054;28;20448;-69
2023/03/19 00:22:19;;;;;;;4.30;2.00;;;;;;;;;;4992221;28;20452;-68
2023/03/19 00:24:48;;;;;;;2.53;1.90;;;;;;;;;;4978543;28;20464;-69
2023/03/19 00:27:15;;;;;;;3.73;2.10;;;;;;;;;;4992004;28;20449;-69
2023/03/19 00:29:42;;;;;;;4.00;2.50;;;;;;;;;;4991630;28;20809;-72
2023/03/19 00:32:09;;;;;;;9.63;3.27;;;;;;;;;;4992085;28;20563;-69
2023/03/19 00:34:36;;;;;;;3.30;2.20;;;;;;;;;;4992092;28;20465;-68
2023/03/19 00:37:04;;;;;;;2.47;2.27;;;;;;;;;;4990741;28;20484;-69
2023/03/19 00:39:31;;;;;;;4.67;2.93;;;;;;;;;;4991605;28;20479;-68
2023/03/19 00:41:59;;;;;;;3.90;2.60;;;;;;;;;;4991248;28;20461;-68
2023/03/19 00:44:26;;;;;;;2.57;2.00;;;;;;;;;;4992024;28;20445;-69
2023/03/19 00:46:53;;;;;;;2.27;1.77;;;;;;;;;;4991145;28;20461;-69
2023/03/19 00:49:21;;;;;;;2.73;1.80;;;;;;;;;;4991725;28;20536;-69
2023/03/19 00:51:48;;;;;;;6.70;2.10;;;;;;;;;;4991168;28;20975;-69
2023/03/19 00:54:15;;;;;;;2.57;2.03;;;;;;;;;;4991772;28;20460;-69
2023/03/19 00:56:42;;;;;;;4.13;2.00;;;;;;;;;;4991057;28;20485;-73
2023/03/19 00:59:11;;;;;;;2.33;1.30;;;;;;;;;;4990995;28;20532;-69
2023/03/19 01:01:38;;;;;;;1.80;1.50;;;;;;;;;;4991442;28;20445;-69
2023/03/19 01:04:05;;;;;;;2.90;1.80;;;;;;;;;;4990893;28;20481;-70
2023/03/19 01:06:32;;;;;;;8.20;1.80;;;;;;;;;;4991333;28;20817;-69
2023/03/19 01:09:00;;;;;;;3.70;2.30;;;;;;;;;;4990536;28;20456;-69
2023/03/19 01:11:27;;;;;;;3.20;2.03;;;;;;;;;;4991386;28;20445;-69
2023/03/19 01:13:54;;;;;;;4.67;2.00;;;;;;;;;;4990496;28;20969;-69
2023/03/19 01:16:22;;;;;;;3.10;2.00;;;;;;;;;;4991368;28;20481;-70
2023/03/19 01:18:50;;;;;;;4.10;2.00;;;;;;;;;;4990460;28;20449;-68
2023/03/19 01:21:17;;;;;;;3.50;1.70;;;;;;;;;;4990922;28;20457;-69
2023/03/19 01:23:44;;;;;;;3.57;1.60;;;;;;;;;;4990900;28;20453;-73
2023/03/19 01:26:12;;;;;;;3.73;1.83;;;;;;;;;;4990928;28;20460;-69
2023/03/19 01:28:40;;;;;;;3.23;1.67;;;;;;;;;;4991167;28;20452;-69
2023/03/19 01:31:08;;;;;;;3.23;1.70;;;;;;;;;;4990820;28;20824;-69
2023/03/19 01:33:37;;;;;;;3.60;2.20;;;;;;;;;;4991152;28;20468;-69
2023/03/19 01:36:05;;;;;;;2.40;2.10;;;;;;;;;;4990396;28;20714;-67
2023/03/19 01:38:32;;;;;;;5.00;2.20;;;;;;;;;;4991048;28;20531;-69
2023/03/19 01:40:59;;;;;;;2.63;2.00;;;;;;;;;;4990567;28;20464;-69
2023/03/19 01:43:27;;;;;;;3.07;1.60;;;;;;;;;;4991334;28;20487;-70
2023/03/19 01:45:57;;;;;;;5.50;1.50;;;;;;;;;;4990503;28;20453;-69
2023/03/19 01:48:29;;;;;;;2.63;2.10;;;;;;;;;;4990922;28;20455;-68
2023/03/19 01:50:58;;;;;;;4.40;1.70;;;;;;;;;;4990150;28;20448;-68
2023/03/19 01:53:26;;;;;;;3.53;1.70;;;;;;;;;;4991234;28;20457;-68
2023/03/19 01:55:55;;;;;;;2.87;2.30;;;;;;;;;;4989910;28;20461;-70
2023/03/19 01:58:22;;;;;;;3.40;1.77;;;;;;;;;;4990751;28;20914;-69
2023/03/19 02:00:50;;;;;;;3.93;2.03;;;;;;;;;;4990379;28;20449;-69
2023/03/19 02:03:17;;;;;;;2.63;1.80;;;;;;;;;;4991060;28;20448;-69
2023/03/19 02:05:45;;;;;;;2.97;1.37;;;;;;;;;;4990624;28;20453;-74
2023/03/19 02:08:15;;;;;;;3.00;1.97;;;;;;;;;;4990852;28;20971;-69
2023/03/19 02:10:43;;;;;;;1.70;1.50;;;;;;;;;;4990366;28;20477;-73
2023/03/19 02:13:11;;;;;;;1.37;1.20;;;;;;;;;;4990780;28;20449;-70
2023/03/19 02:15:38;;;;;;;3.70;2.47;;;;;;;;;;4990904;28;20864;-68
2023/03/19 02:18:05;;;;;;;2.57;1.60;;;;;;;;;;4989841;28;21028;-68
2023/03/19 02:20:35;;;;;;;2.00;1.63;;;;;;;;;;4990202;28;20457;-69
2023/03/19 02:23:07;;;;;;;3.27;1.63;;;;;;;;;;4990268;28;21068;-69
2023/03/19 02:25:40;;;;;;;3.37;1.87;;;;;;;;;;4978098;28;20453;-70
2023/03/19 02:28:09;;;;;;;2.07;1.70;;;;;;;;;;4990654;28;20789;-69
2023/03/19 02:30:38;;;;;;;2.70;1.83;;;;;;;;;;4990791;28;20543;-68
2023/03/19 02:33:05;;;;;;;2.10;1.20;;;;;;;;;;4993093;28;20445;-69
2023/03/19 02:35:34;;;;;;;2.70;2.03;;;;;;;;;;4994334;28;20445;-69
2023/03/19 02:38:02;;;;;;;2.53;1.80;;;;;;;;;;4993108;28;21057;-69
2023/03/19 02:40:31;;;;;;;1.60;1.30;;;;;;;;;;4993540;28;20464;-69
2023/03/19 02:42:59;;;;;;;4.60;2.30;;;;;;;;;;4993512;28;20449;-68
2023/03/19 02:45:29;;;;;;;2.20;1.80;;;;;;;;;;4994213;28;20540;-68
2023/03/19 02:47:56;;;;;;;4.60;2.50;;;;;;;;;;4993303;28;20453;-70
2023/03/19 02:50:23;;;;;;;3.90;2.30;;;;;;;;;;4993813;28;20457;-69
2023/03/19 02:52:51;;;;;;;2.30;1.67;;;;;;;;;;4993407;28;20456;-69
2023/03/19 02:55:18;;;;;;;2.47;2.00;;;;;;;;;;4994015;28;20453;-68
2023/03/19 02:57:45;;;;;;;4.23;1.80;;;;;;;;;;4993246;28;20871;-73
2023/03/19 03:00:13;;;;;;;3.63;2.03;;;;;;;;;;4993635;28;20460;-68
2023/03/19 03:02:41;;;;;;;3.73;2.10;;;;;;;;;;4993595;28;20445;-68
2023/03/19 03:05:09;;;;;;;2.70;1.97;;;;;;;;;;4993383;28;20507;-68
2023/03/19 03:07:36;;;;;;;2.37;1.70;;;;;;;;;;4993523;28;20460;-68
2023/03/19 03:10:03;;;;;;;5.10;1.57;;;;;;;;;;4992240;28;20650;-68
2023/03/19 03:12:31;;;;;;;1.90;1.63;;;;;;;;;;4993244;28;20450;-67
2023/03/19 03:14:58;;;;;;;2.23;1.83;;;;;;;;;;4992817;28;20524;-68
2023/03/19 03:17:25;;;;;;;3.53;1.50;;;;;;;;;;4993377;28;20488;-68
2023/03/19 03:19:54;;;;;;;3.40;2.73;;;;;;;;;;4992353;28;20995;-68
2023/03/19 03:22:22;;;;;;;2.80;2.00;;;;;;;;;;4993555;28;20456;-70
2023/03/19 03:24:49;;;;;;;3.07;2.17;;;;;;;;;;4992853;28;20460;-71
2023/03/19 03:27:16;;;;;;;7.87;1.97;;;;;;;;;;4994007;28;20457;-68
2023/03/19 03:29:43;;;;;;;4.20;2.23;;;;;;;;;;4992703;28;20884;-74
2023/03/19 03:32:10;;;;;;;2.33;1.83;;;;;;;;;;4993119;28;20487;-68
2023/03/19 03:34:38;;;;;;;2.50;2.10;;;;;;;;;;4993465;28;20456;-68
2023/03/19 03:37:06;;;;;;;2.60;1.90;;;;;;;;;;4992148;28;20571;-68
2023/03/19 03:39:34;;;;;;;3.07;2.20;;;;;;;;;;4992233;28;20516;-69
2023/03/19 03:42:01;;;;;;;3.03;2.70;;;;;;;;;;4992472;28;20796;-68
2023/03/19 03:44:28;;;;;;;3.93;2.73;;;;;;;;;;4992452;28;20531;-68
2023/03/19 03:46:55;;;;;;;3.77;1.87;;;;;;;;;;4991988;28;20452;-69
2023/03/19 03:49:22;;;;;;;3.17;2.10;;;;;;;;;;4992644;28;20460;-68
2023/03/19 03:51:50;;;;;;;3.50;1.93;;;;;;;;;;4992371;28;20456;-68
2023/03/19 03:54:18;;;;;;;3.97;3.30;;;;;;;;;;4992944;28;20457;-68
2023/03/19 03:56:45;;;;;;;4.30;2.83;;;;;;;;;;4992464;28;20450;-74
2023/03/19 03:59:13;;;;;;;4.70;2.77;;;;;;;;;;4991966;28;20499;-68
2023/03/19 04:01:40;;;;;;;4.00;2.00;;;;;;;;;;4992884;28;20456;-68
2023/03/19 04:04:07;;;;;;;2.10;1.90;;;;;;;;;;4991891;28;20464;-69
2023/03/19 04:06:34;;;;;;;3.70;2.20;;;;;;;;;;4992709;28;20536;-69
2023/03/19 04:09:01;;;;;;;1.70;1.60;;;;;;;;;;4990980;28;20511;-69
2023/03/19 04:11:30;;;;;;;4.20;1.90;;;;;;;;;;4992152;28;20445;-68
2023/03/19 04:13:57;;;;;;;1.47;0.97;;;;;;;;;;4991742;28;20457;-69
2023/03/19 04:16:25;;;;;;;1.00;0.77;;;;;;;;;;4992293;28;20461;-68
2023/03/19 04:18:52;;;;;;;1.07;0.97;;;;;;;;;;4990835;28;20484;-70
2023/03/19 04:21:20;;;;;;;1.60;0.80;;;;;;;;;;4992626;28;20821;-69
2023/03/19 04:23:47;;;;;;;0.80;0.60;;;;;;;;;;4991375;28;20453;-74
2023/03/19 04:26:14;;;;;;;1.40;1.20;;;;;;;;;;4992417;28;20456;-69
2023/03/19 04:28:43;;;;;;;1.03;0.93;;;;;;;;;;4991679;28;20966;-69
2023/03/19 04:31:11;;;;;;;2.00;1.17;;;;;;;;;;4991923;28;20456;-69
2023/03/19 04:33:38;;;;;;;1.63;1.10;;;;;;;;;;4992144;28;20519;-69
2023/03/19 04:36:07;;;;;;;1.20;0.80;;;;;;;;;;4991399;28;21163;-69
2023/03/19 04:38:34;;;;;;;1.17;0.90;;;;;;;;;;4991303;28;20481;-69
2023/03/19 04:41:01;;;;;;;0.90;0.70;;;;;;;;;;4991426;28;20453;-69
2023/03/19 04:43:28;;;;;;;0.70;0.70;;;;;;;;;;4991791;28;20453;-69
2023/03/19 04:45:58;;;;;;;1.00;0.90;;;;;;;;;;4991275;28;20479;-69
2023/03/19 04:48:25;;;;;;;0.60;0.50;;;;;;;;;;4979023;28;20974;-70
2023/03/19 04:50:55;;;;;;;0.60;0.40;;;;;;;;;;4990906;28;20944;-69
2023/03/19 04:53:23;;;;;;;1.07;0.97;;;;;;;;;;4992133;28;21117;-69
2023/03/19 04:55:50;;;;;;;0.93;0.60;;;;;;;;;;4990138;28;20463;-69
2023/03/19 04:58:18;;;;;;;1.77;0.93;;;;;;;;;;4991289;28;20488;-69
2023/03/19 05:00:46;;;;;;;1.30;1.10;;;;;;;;;;4991403;28;20453;-74
2023/03/19 05:03:14;;;;;;;0.70;0.50;;;;;;;;;;4991522;28;20544;-69
2023/03/19 05:05:42;;;;;;;0.83;0.83;;;;;;;;;;4991749;28;20453;-69
2023/03/19 05:08:09;;;;;;;0.60;0.40;;;;;;;;;;4990575;28;20461;-69
2023/03/19 05:10:36;;;;;;;0.70;0.60;;;;;;;;;;4990597;28;20590;-69
2023/03/19 05:13:04;;;;;;;0.70;0.50;;;;;;;;;;4990771;28;21073;-69
2023/03/19 05:15:31;;;;;;;0.70;0.50;;;;;;;;;;4991155;28;20567;-68
2023/03/19 05:17:58;;;;;;;0.70;0.60;;;;;;;;;;4990124;28;20496;-71
2023/03/19 05:20:27;;;;;;;0.93;0.70;;;;;;;;;;4991113;28;20461;-69
2023/03/19 05:22:54;;;;;;;0.90;0.67;;;;;;;;;;4990910;28;20479;-69
2023/03/19 05:25:21;;;;;;;0.70;0.50;;;;;;;;;;4991243;28;20449;-71
2023/03/19 05:27:48;;;;;;;1.43;1.33;;;;;;;;;;4991104;28;20479;-69
2023/03/19 05:30:17;;;;;;;0.60;0.50;;;;;;;;;;4990729;28;20453;-69
2023/03/19 05:32:45;;;;;;;1.23;1.07;;;;;;;;;;4990994;28;20827;-75
2023/03/19 05:35:13;;;;;;;1.00;0.87;;;;;;;;;;4991421;28;20449;-69
2023/03/19 05:37:41;;;;;;;0.87;0.50;;;;;;;;;;4991375;28;20489;-69
2023/03/19 05:40:09;;;;;;;0.90;0.80;;;;;;;;;;4990139;28;20465;-69
2023/03/19 05:42:36;;;;;;;0.80;0.67;;;;;;;;;;4990986;28;20459;-69
2023/03/19 05:45:04;;;;;;;0.63;0.43;;;;;;;;;;4990608;28;21306;-70
2023/03/19 05:47:31;;;;;;;1.20;0.90;;;;;;;;;;4991379;28;20812;-69
2023/03/19 05:49:58;;;;;;;0.90;0.50;;;;;;;;;;4989974;28;20456;-69
2023/03/19 05:52:25;;;;;;;0.60;0.40;;;;;;;;;;4991423;28;20449;-69
2023/03/19 05:54:53;;;;;;;0.70;0.43;;;;;;;;;;4990577;28;20453;-69
2023/03/19 05:57:21;;;;;;;1.43;1.23;;;;;;;;;;4991206;28;20806;-71
2023/03/19 05:59:48;;;;;;;0.80;0.60;;;;;;;;;;4989942;28;20535;-75
2023/03/19 06:02:15;;;;;;;1.53;0.60;;;;;;;;;;4991166;28;20463;-69
2023/03/19 06:04:42;;;;;;;0.60;0.50;;;;;;;;;;4991050;28;20472;-69
2023/03/19 06:07:09;;;;;;;0.97;0.77;;;;;;;;;;4992399;28;20461;-69
2023/03/19 06:09:36;;;;;;;0.70;0.40;;;;;;;;;;4994061;28;20477;-69
2023/03/19 06:12:05;;;;;;;0.70;0.50;;;;;;;;;;4993617;28;20445;-70
2023/03/19 06:14:32;;;;;;;0.70;0.40;;;;;;;;;;4995036;28;20453;-69
2023/03/19 06:16:59;;;;;;;0.70;0.50;;;;;;;;;;4993627;28;20465;-69
2023/03/19 06:19:26;;;;;;;0.70;0.50;;;;;;;;;;4994168;28;20480;-69
2023/03/19 06:21:53;;;;;;;0.60;0.40;;;;;;;;;;4993823;28;20475;-69
2023/03/19 06:24:20;;;;;;;1.20;1.10;;;;;;;;;;4994851;28;20449;-69
2023/03/19 06:26:48;;;;;;;1.60;0.77;;;;;;;;;;4993952;28;20449;-74
2023/03/19 06:29:16;;;;;;;0.70;0.40;;;;;;;;;;4993798;28;20468;-68
2023/03/19 06:31:43;;;;;;;0.60;0.50;;;;;;;;;;4994478;28;20452;-69
2023/03/19 06:34:10;;;;;;;1.40;1.30;;;;;;;;;;4994362;28;20485;-69
2023/03/19 06:36:37;;;;;;;0.60;0.40;;;;;;;;;;4994566;28;20449;-69
2023/03/19 06:39:05;;;;;;;0.80;0.60;;;;;;;;;;4993242;28;20492;-69
2023/03/19 06:41:32;;;;;;;3.43;0.97;;;;;;;;;;4993805;28;20456;-69
2023/03/19 06:43:59;;;;;;;1.10;0.70;;;;;;;;;;4993628;28;20821;-70
2023/03/19 06:46:27;;;;;;;1.50;1.40;;;;;;;;;;4994000;28;20449;-69
2023/03/19 06:48:54;;;;;;;0.60;0.40;;;;;;;;;;4992957;28;20449;-69
2023/03/19 06:51:21;;;;;;;0.70;0.50;;;;;;;;;;4994301;28;20805;-70
2023/03/19 06:53:49;;;;;;;0.70;0.60;;;;;;;;;;4993510;28;20463;-74
2023/03/19 06:56:16;;;;;;;0.70;0.60;;;;;;;;;;4993603;28;20453;-69
2023/03/19 06:58:43;;;;;;;1.30;0.70;;;;;;;;;;4993932;28;20484;-69
2023/03/19 07:01:10;;;;;;;0.70;0.57;;;;;;;;;;4993226;28;20448;-69
2023/03/19 07:03:38;;;;;;;0.63;0.50;;;;;;;;;;4994028;28;20449;-69
2023/03/19 07:06:06;;;;;;;0.60;0.50;;;;;;;;;;4993152;28;20637;-69
2023/03/19 07:08:33;;;;;;;0.70;0.60;;;;;;;;;;4993767;28;20872;-69
2023/03/19 07:11:04;;;;;;;0.80;0.60;;;;;;;;;;4992320;28;20469;-69
2023/03/19 07:13:31;;;;;;;0.80;0.60;;;;;;;;;;4993458;28;20449;-69
2023/03/19 07:15:59;;;;;;;1.20;1.00;;;;;;;;;;4992995;28;20489;-69
2023/03/19 07:18:26;;;;;;;0.77;0.60;;;;;;;;;;4992278;28;20485;-69
2023/03/19 07:20:54;;;;;;;0.80;0.60;;;;;;;;;;4992827;28;20453;-69
2023/03/19 07:23:21;;;;;;;1.87;1.73;;;;;;;;;;4993383;28;20507;-70
2023/03/19 07:25:49;;;;;;;0.60;0.40;;;;;;;;;;4992941;28;20456;-73
2023/03/19 07:28:16;;;;;;;0.60;0.50;;;;;;;;;;4993388;28;20461;-71
2023/03/19 07:30:43;;;;;;;0.70;0.60;;;;;;;;;;4993477;28;20452;-69
2023/03/19 07:33:10;;;;;;;0.70;0.60;;;;;;;;;;4992709;28;20453;-69
2023/03/19 07:35:37;;;;;;;0.60;0.50;;;;;;;;;;4993422;28;20504;-69
2023/03/19 07:38:06;;;;;;;0.60;0.40;;;;;;;;;;4992093;28;20463;-69
2023/03/19 07:40:33;;;;;;;0.60;0.50;;;;;;;;;;4993241;28;20463;-70
2023/03/19 07:43:00;;;;;;;1.63;0.53;;;;;;;;;;4991852;28;20453;-69
2023/03/19 07:45:27;;;;;;;0.60;0.40;;;;;;;;;;4993199;28;20472;-69
2023/03/19 07:47:54;;;;;;;1.00;0.70;;;;;;;;;;4991636;28;20464;-69
2023/03/19 07:50:22;;;;;;;1.23;0.83;;;;;;;;;;4993062;28;20539;-70
2023/03/19 07:52:50;;;;;;;0.60;0.40;;;;;;;;;;4992456;28;20808;-75
2023/03/19 07:55:18;;;;;;;1.43;0.70;;;;;;;;;;4992841;28;20932;-69
2023/03/19 07:57:46;;;;;;;0.60;0.40;;;;;;;;;;4992452;28;20449;-74
2023/03/19 08:00:13;;;;;;;0.70;0.70;;;;;;;;;;4992658;28;20492;-69
2023/03/19 08:02:41;;;;;;;0.70;0.50;;;;;;;;;;4992743;28;20449;-70
2023/03/19 08:05:08;;;;;;;0.60;0.40;;;;;;;;;;4991823;28;20928;-69
2023/03/19 08:07:36;;;;;;;0.70;0.50;;;;;;;;;;4992757;28;20456;-69
2023/03/19 08:10:03;;;;;;;1.53;0.90;;;;;;;;;;4991210;28;20488;-70
2023/03/19 08:12:33;;;;;;;1.83;1.73;;;;;;;;;;4992443;28;20454;-69
2023/03/19 08:15:00;;;;;;;0.60;0.40;;;;;;;;;;4991664;28;20445;-69
2023/03/19 08:17:27;;;;;;;0.70;0.50;;;;;;;;;;4992079;28;20469;-69
2023/03/19 08:19:54;;;;;;;2.30;1.23;;;;;;;;;;4991149;28;20481;-69
2023/03/19 08:22:21;;;;;;;0.80;0.77;;;;;;;;;;4992426;28;20449;-70
2023/03/19 08:24:49;;;;;;;1.33;0.83;;;;;;;;;;4992073;28;20460;-73
2023/03/19 08:27:16;;;;;;;0.70;0.53;;;;;;;;;;4979328;28;20885;-68
2023/03/19 08:29:44;;;;;;;0.70;0.60;;;;;;;;;;4991729;28;20467;-68
2023/03/19 08:32:11;;;;;;;5.97;0.77;;;;;;;;;;4991501;28;20461;-68
2023/03/19 08:34:38;;;;;;;0.77;0.77;;;;;;;;;;4991901;28;20457;-69
2023/03/19 08:37:05;;;;;;;0.60;0.40;;;;;;;;;;4991498;28;21246;-68
2023/03/19 08:39:32;;;;;;;0.70;0.60;;;;;;;;;;4991479;28;20508;-69
2023/03/19 08:42:00;;;;;;;0.70;0.63;;;;;;;;;;4991259;28;20464;-69
2023/03/19 08:44:27;;;;;;;0.60;0.40;;;;;;;;;;4992056;28;20528;-68
2023/03/19 08:46:55;;;;;;;1.57;0.93;;;;;;;;;;4991243;28;20535;-69
2023/03/19 08:49:22;;;;;;;1.90;0.80;;;;;;;;;;4991577;28;20449;-70
2023/03/19 08:51:50;;;;;;;0.70;0.60;;;;;;;;;;4991530;28;20461;-73
2023/03/19 08:54:17;;;;;;;0.80;0.67;;;;;;;;;;4992147;28;20465;-68
2023/03/19 08:56:44;;;;;;;0.60;0.50;;;;;;;;;;4991497;28;20456;-68
2023/03/19 08:59:11;;;;;;;0.70;0.60;;;;;;;;;;4990934;28;20819;-68
2023/03/19 09:01:38;;;;;;;0.73;0.57;;;;;;;;;;4991864;28;20464;-68
2023/03/19 09:04:07;;;;;;;0.70;0.53;;;;;;;;;;4990991;28;20445;-68
2023/03/19 09:06:34;;;;;;;0.80;0.70;;;;;;;;;;4991760;28;20532;-69
2023/03/19 09:09:01;;;;;;;1.43;1.33;;;;;;;;;;4990185;28;20461;-69
2023/03/19 09:11:28;;;;;;;1.13;0.60;;;;;;;;;;4991628;28;20511;-68
2023/03/19 09:13:55;;;;;;;0.80;0.70;;;;;;;;;;4990949;28;20462;-68
2023/03/19 09:16:23;;;;;;;0.70;0.60;;;;;;;;;;4991500;28;20453;-69
2023/03/19 09:18:50;;;;;;;0.70;0.60;;;;;;;;;;4990578;28;20488;-73
2023/03/19 09:21:18;;;;;;;0.60;0.40;;;;;;;;;;4991808;28;20449;-68
2023/03/19 09:23:45;;;;;;;0.60;0.40;;;;;;;;;;4991481;28;20452;-69
2023/03/19 09:26:12;;;;;;;0.70;0.60;;;;;;;;;;4990604;28;20463;-69
2023/03/19 09:28:39;;;;;;;0.70;0.53;;;;;;;;;;4991092;28;20483;-69
2023/03/19 09:31:10;;;;;;;1.20;0.73;;;;;;;;;;4990402;28;20936;-68
2023/03/19 09:33:37;;;;;;;0.70;0.50;;;;;;;;;;4991506;28;20960;-68
2023/03/19 09:36:05;;;;;;;0.80;0.70;;;;;;;;;;4990506;28;20959;-68
2023/03/19 09:38:33;;;;;;;0.60;0.50;;;;;;;;;;4991182;28;20453;-68
2023/03/19 09:41:06;;;;;;;0.80;0.73;;;;;;;;;;4990240;28;20584;-68
2023/03/19 09:43:37;;;;;;;0.60;0.40;;;;;;;;;;4995765;28;20465;-68
2023/03/19 09:46:07;;;;;;;0.90;0.60;;;;;;;;;;4994688;28;20445;-70
2023/03/19 09:48:36;;;;;;;0.70;0.63;;;;;;;;;;4995306;28;20525;-70
2023/03/19 09:51:06;;;;;;;0.60;0.50;;;;;;;;;;4994549;28;20452;-70
2023/03/19 09:53:37;;;;;;;0.80;0.40;;;;;;;;;;4995525;28;20456;-70
2023/03/19 09:56:06;;;;;;;0.70;0.60;;;;;;;;;;4994599;28;20456;-74
2023/03/19 09:58:34;;;;;;;0.90;0.67;;;;;;;;;;4994960;28;20445;-70
2023/03/19 10:01:02;;;;;;;0.60;0.50;;;;;;;;;;4994293;28;20476;-69
2023/03/19 10:03:42;;;;;;;0.60;0.43;;;;;;;;;;4995062;28;20544;-69
2023/03/19 10:06:15;;;;;;;0.83;0.60;;;;;;;;;;4994413;28;21076;-69
2023/03/19 10:08:50;;;;;;;0.73;0.73;;;;;;;;;;4994828;28;20455;-69
2023/03/19 10:11:24;;;;;;;1.13;0.50;;;;;;;;;;4995092;28;20490;-69
2023/03/19 10:13:59;;;;;;;0.70;0.50;;;;;;;;;;4994273;28;20440;-71
2023/03/19 10:16:27;;;;;;;0.70;0.60;;;;;;;;;;4994997;28;20494;-69
2023/03/19 10:18:56;;;;;;;0.63;0.57;;;;;;;;;;4993816;28;20532;-69
2023/03/19 10:21:27;;;;;;;0.70;0.50;;;;;;;;;;4994946;28;20537;-68
2023/03/19 10:23:58;;;;;;;0.60;0.40;;;;;;;;;;4994158;28;20491;-68
2023/03/19 10:26:30;;;;;;;0.70;0.60;;;;;;;;;;4994649;28;20445;-68
2023/03/19 10:29:00;;;;;;;0.60;0.40;;;;;;;;;;4993736;28;20483;-69
2023/03/19 10:31:28;;;;;;;1.03;0.87;;;;;;;;;;4994618;28;20452;-68
2023/03/19 10:33:59;;;;;;;0.97;0.60;;;;;;;;;;4994005;28;20453;-68
2023/03/19 10:36:27;;;;;;;0.60;0.40;;;;;;;;;;4994348;28;20453;-69
2023/03/19 10:38:56;;;;;;;0.60;0.40;;;;;;;;;;4993669;28;20476;-68
2023/03/19 10:41:31;;;;;;;0.70;0.50;;;;;;;;;;4993912;28;20460;-68
2023/03/19 10:44:00;;;;;;;0.90;0.73;;;;;;;;;;4993849;28;20456;-68
2023/03/19 10:46:27;;;;;;;0.70;0.50;;;;;;;;;;4994104;28;20457;-68
2023/03/19 10:48:54;;;;;;;0.60;0.50;;;;;;;;;;4993399;28;20453;-68
2023/03/19 10:51:22;;;;;;;0.60;0.50;;;;;;;;;;4994365;28;20453;-71
2023/03/19 10:53:49;;;;;;;0.80;0.60;;;;;;;;;;4994212;28;20460;-72
2023/03/19 10:56:21;;;;;;;0.60;0.50;;;;;;;;;;4994369;28;20449;-70
2023/03/19 10:58:59;;;;;;;0.60;0.60;;;;;;;;;;4994112;28;20801;-73
2023/03/19 11:01:32;;;;;;;0.63;0.47;;;;;;;;;;4994268;28;20520;-69
2023/03/19 11:04:00;;;;;;;0.57;0.40;;;;;;;;;;4993289;28;20449;-68
2023/03/19 11:06:28;;;;;;;0.60;0.50;;;;;;;;;;4994147;28;20453;-68
2023/03/19 11:08:57;;;;;;;0.60;0.50;;;;;;;;;;4992917;28;20457;-69
2023/03/19 11:11:33;;;;;;;0.60;0.57;;;;;;;;;;4993382;28;20485;-69
2023/03/19 11:14:06;;;;;;;0.60;0.50;;;;;;;;;;4993100;28;20441;-69
2023/03/19 11:16:34;;;;;;;2.13;0.57;;;;;;;;;;4994337;28;20456;-69
2023/03/19 11:19:01;;;;;;;0.60;0.40;;;;;;;;;;4992803;28;20489;-69
2023/03/19 11:21:29;;;;;;;1.30;0.97;;;;;;;;;;4993795;28;20492;-69
2023/03/19 11:24:01;;;;;;;1.33;1.23;;;;;;;;;;4980117;28;20947;-69
2023/03/19 11:26:30;;;;;;;0.60;0.60;;;;;;;;;;4993298;28;20799;-69
2023/03/19 11:29:02;;;;;;;1.27;1.07;;;;;;;;;;4992322;28;20456;-69
2023/03/19 11:31:33;;;;;;;0.90;0.50;;;;;;;;;;4993656;28;20453;-68
2023/03/19 11:34:08;;;;;;;1.23;1.13;;;;;;;;;;4993066;28;20540;-69
2023/03/19 11:36:41;;;;;;;1.30;0.87;;;;;;;;;;4993341;28;20436;-69
2023/03/19 11:39:17;;;;;;;0.70;0.60;;;;;;;;;;4991985;28;20452;-69
2023/03/19 11:41:54;;;;;;;0.70;0.70;;;;;;;;;;4993088;28;20441;-69
2023/03/19 11:44:24;;;;;;;0.70;0.50;;;;;;;;;;4993215;28;20519;-72
2023/03/19 11:46:54;;;;;;;0.60;0.50;;;;;;;;;;4992998;28;20777;-73
2023/03/19 11:49:48;;;;;;;0.60;0.50;;;;;;;;;;4992800;28;20445;-68
2023/03/19 11:52:19;;;;;;;0.60;0.60;;;;;;;;;;4992902;28;20447;-68
2023/03/19 11:54:52;;;;;;;1.10;0.80;;;;;;;;;;4993323;28;20437;-68
2023/03/19 11:57:23;;;;;;;0.60;0.50;;;;;;;;;;4992414;28;20948;-70
2023/03/19 12:00:09;;;;;;;0.70;0.50;;;;;;;;;;4992609;28;20986;-75
2023/03/19 12:02:43;;;;;;;0.70;0.50;;;;;;;;;;4992911;28;20445;-70
2023/03/19 12:05:18;;;;;;;0.60;0.43;;;;;;;;;;4991793;28;20441;-70
2023/03/19 12:07:47;;;;;;;1.17;0.70;;;;;;;;;;4992366;28;20456;-70
2023/03/19 12:10:28;;;;;;;0.60;0.40;;;;;;;;;;4991785;28;20491;-68
2023/03/19 12:12:59;;;;;;;0.70;0.57;;;;;;;;;;4991867;28;20445;-71
2023/03/19 12:15:29;;;;;;;0.63;0.53;;;;;;;;;;4992445;28;20928;-70
2023/03/19 12:18:04;;;;;;;1.00;0.80;;;;;;;;;;4991784;28;20461;-70
2023/03/19 12:20:41;;;;;;;0.90;0.73;;;;;;;;;;4992613;28;20847;-69
2023/03/19 12:23:13;;;;;;;0.70;0.50;;;;;;;;;;4991899;28;20448;-70
2023/03/19 12:25:44;;;;;;;1.10;0.80;;;;;;;;;;4992558;28;20449;-72
2023/03/19 12:28:17;;;;;;;0.60;0.53;;;;;;;;;;4991505;28;20951;-71
2023/03/19 12:30:46;;;;;;;0.70;0.50;;;;;;;;;;4992812;28;20723;-71
2023/03/19 12:33:26;;;;;;;0.60;0.50;;;;;;;;;;4991579;28;20452;-69
2023/03/19 12:35:55;;;;;;;0.60;0.40;;;;;;;;;;4992125;28;20524;-69
2023/03/19 12:38:25;;;;;;;0.90;0.63;;;;;;;;;;4992165;28;20532;-69
2023/03/19 12:40:55;;;;;;;0.60;0.43;;;;;;;;;;4991928;28;20484;-69
2023/03/19 12:43:26;;;;;;;0.83;0.70;;;;;;;;;;4992120;28;20449;-70
2023/03/19 12:45:55;;;;;;;0.60;0.57;;;;;;;;;;4991998;28;20460;-70
2023/03/19 12:48:25;;;;;;;0.90;0.60;;;;;;;;;;4979508;28;20457;-70
2023/03/19 12:50:55;;;;;;;0.60;0.50;;;;;;;;;;4991773;28;20438;-71
2023/03/19 12:53:31;;;;;;;0.80;0.60;;;;;;;;;;4992161;28;20532;-69
2023/03/19 12:56:00;;;;;;;1.20;1.10;;;;;;;;;;4991784;28;20516;-69
2023/03/19 12:58:40;;;;;;;0.60;0.50;;;;;;;;;;4991732;28;20449;-69
2023/03/19 13:01:11;;;;;;;0.60;0.40;;;;;;;;;;4991339;28;20477;-70
2023/03/19 13:03:40;;;;;;;0.70;0.50;;;;;;;;;;4992245;28;20488;-69
2023/03/19 13:06:09;;;;;;;2.20;1.37;;;;;;;;;;4991458;28;20523;-69
2023/03/19 13:08:40;;;;;;;1.00;0.90;;;;;;;;;;4991963;28;20552;-68
2023/03/19 13:11:11;;;;;;;1.30;1.00;;;;;;;;;;4991529;28;20483;-69
2023/03/19 13:13:43;;;;;;;1.73;0.70;;;;;;;;;;4991830;28;20816;-67
2023/03/19 13:16:14;;;;;;;0.80;0.60;;;;;;;;;;4990556;28;20453;-67
2023/03/19 13:18:45;;;;;;;0.90;0.60;;;;;;;;;;4991590;28;20452;-69
2023/03/19 13:21:22;;;;;;;0.60;0.40;;;;;;;;;;4991234;28;20516;-69
2023/03/19 13:23:50;;;;;;;0.60;0.40;;;;;;;;;;4992059;28;20444;-70
2023/03/19 13:26:18;;;;;;;0.87;0.73;;;;;;;;;;4992072;28;20441;-70
2023/03/19 13:29:00;;;;;;;0.60;0.50;;;;;;;;;;4991121;28;20445;-70
2023/03/19 13:31:27;;;;;;;0.60;0.50;;;;;;;;;;4991818;28;20441;-69
2023/03/19 13:34:01;;;;;;;0.80;0.50;;;;;;;;;;4991290;28;20455;-70
2023/03/19 13:36:29;;;;;;;0.60;0.50;;;;;;;;;;4991831;28;20516;-70
2023/03/19 13:38:58;;;;;;;2.10;1.47;;;;;;;;;;4990839;28;20515;-70
2023/03/19 13:41:41;;;;;;;2.23;0.83;;;;;;;;;;4991321;28;20975;-70
2023/03/19 13:44:25;;;;;;;0.60;0.40;;;;;;;;;;4990686;28;20948;-70
2023/03/19 13:46:52;;;;;;;0.60;0.50;;;;;;;;;;4991366;28;20441;-78
2023/03/19 13:49:27;;;;;;;0.60;0.40;;;;;;;;;;4991388;28;20452;-70
2023/03/19 13:51:55;;;;;;;1.57;0.70;;;;;;;;;;4990855;28;20456;-77
2023/03/19 13:54:33;;;;;;;0.60;0.50;;;;;;;;;;4991515;28;20459;-69
2023/03/19 13:57:07;;;;;;;0.70;0.50;;;;;;;;;;4990612;28;20449;-69
2023/03/19 13:59:36;;;;;;;0.73;0.63;;;;;;;;;;4991063;28;20936;-69
2023/03/19 14:02:24;;;;;;;0.60;0.40;;;;;;;;;;4990401;28;20572;-70
2023/03/19 14:04:53;;;;;;;0.70;0.50;;;;;;;;;;4990987;28;20535;-77
2023/03/19 14:07:22;;;;;;;1.20;1.07;;;;;;;;;;4990995;28;20456;-69
2023/03/19 14:09:50;;;;;;;1.37;0.50;;;;;;;;;;4991137;28;20983;-69
2023/03/19 14:12:25;;;;;;;1.27;0.80;;;;;;;;;;4991414;28;20800;-71
2023/03/19 14:14:56;;;;;;;0.60;0.50;;;;;;;;;;4990885;28;20804;-70
2023/03/19 14:17:25;;;;;;;0.70;0.60;;;;;;;;;;4990991;28;20457;-69
2023/03/19 14:19:53;;;;;;;0.70;0.57;;;;;;;;;;4990789;28;20823;-69
2023/03/19 14:22:21;;;;;;;1.00;0.60;;;;;;;;;;4991210;28;20991;-69
2023/03/19 14:25:03;;;;;;;0.60;0.50;;;;;;;;;;4991551;28;20456;-69
2023/03/19 14:27:31;;;;;;;0.97;0.87;;;;;;;;;;4991963;28;20479;-69
2023/03/19 14:30:03;;;;;;;0.80;0.60;;;;;;;;;;4994153;28;20511;-69
2023/03/19 14:32:35;;;;;;;0.53;0.40;;;;;;;;;;4995149;28;20453;-69
2023/03/19 14:35:05;;;;;;;0.77;0.60;;;;;;;;;;4994181;28;20445;-69
2023/03/19 14:37:35;;;;;;;1.30;0.70;;;;;;;;;;4994629;28;20457;-69
2023/03/19 14:40:04;;;;;;;0.60;0.50;;;;;;;;;;4994182;28;20464;-70
2023/03/19 14:42:33;;;;;;;0.53;0.40;;;;;;;;;;4994701;28;20477;-69
2023/03/19 14:45:20;;;;;;;0.80;0.50;;;;;;;;;;4994335;28;20453;-69
2023/03/19 14:47:53;;;;;;;0.70;0.50;;;;;;;;;;4994087;28;20445;-70
2023/03/19 14:50:35;;;;;;;0.60;0.50;;;;;;;;;;4994405;28;20536;-70
2023/03/19 14:53:03;;;;;;;2.10;0.70;;;;;;;;;;4991723;28;20477;-70